x

Columbia River Bar - 20nm West Of Columbia River Mouth (46029) Wave Buoy

1:50 - Wed 24th Aug 2016 All times are PDT. -7 hours from GMT.

  • Sig Wave height 3.3ft
  • Swell Direction
  • Peak Period 7s
  • Average Period 5s
  • Wind
    16mph, 18mph gusts
  • Sea Temp 57°f
  • Air Temp 59°f
  • Sea Pressure 1021.7mb
  • Columbia River Bar - 20nm West Of Columbia River Mouth
  • Columbia River Bar - 20nm West Of Columbia River Mouth

More Historic Weather Station data

Upgrade to MSW Pro to gain access to the past 30 days of data for over 8000 Wavebouys and Weather Stations around the globe.

Join Pro

Comparision Forecast

View Surf forecast
   
mer. 08/24 1:50 3.5ft 7s 5s 16 18 mph 1021.7mb 57f 59f
12:50 3.5ft 6s 5s 16 18 mph 1022.3mb 57f 58f
11:50 3.5ft 6s 5s 13 16 mph 1022.7mb 57f 58f
10:50 3.5ft 6s 5s 16
mph
1022.9mb 57f 57f
9:50 3.5ft 6s 5s 11 13 mph 1023mb 58f 57f
8:50 3.5ft 7s 5s 13 16 mph 1022.9mb 57f 57f
7:50 3.5ft 7s 5s 11 13 mph 1022.8mb 57f 57f
6:50 4ft 7s 5s 13 16 mph 1022.7mb 57f 57f
5:50 3.5ft 6s 5s 13 16 mph 1022.3mb 57f 57f
4:50 3.5ft 7s 5s 13 16 mph 1022.2mb 57f 57f
2:50 3ft 7s 5s 11 13 mph 1022.4mb 57f 57f
1:50 3ft 15s 5s 11 13 mph 1022.6mb 57f 57f
12:50 3ft 15s 5s 9 11 mph 1023mb 58f 57f
mar. 08/23 11:50 3.5ft 15s 5s 11 13 mph 1023.1mb 58f 58f
10:50 3.5ft 7s 5s 13
mph
1022.9mb 57f 58f
9:50 3.5ft 7s 5s 13 16 mph 1023.1mb 57f 58f
8:50 3.5ft 16s 5s 13 16 mph 1022.9mb 57f 58f
7:50 3.5ft 7s 5s 13 16 mph 1022.4mb 57f 58f
6:50 3.5ft 7s 5s 16 18 mph 1022.3mb 57f 59f
5:50 3.5ft 8s 5s 16 18 mph 1022.2mb 57f 58f
4:50 3.5ft 8s 5s 16 18 mph 1022.6mb 57f 57f
3:50 4ft 8s 5s 18 20 mph 1022.7mb 59f 56f
2:50 3.5ft 15s 5s 18 20 mph 1022.8mb 58f 55f
1:50 3.5ft 8s 5s 20 22 mph 1023mb 57f 54f
12:50 3.5ft 15s 5s 18 22 mph 1023.1mb 57f 54f
11:50 3.5ft 8s 5s 16 18 mph 1023.1mb 57f 53f
10:50 3.5ft 8s 5s 16 18 mph 1023.1mb 57f 53f
9:50 4.5ft 8s 6s 13 16 mph 1023mb 56f 53f
8:50 4ft 8s 5s 11 13 mph 1022.7mb 57f 53f
7:50 4.5ft 8s 6s 11 16 mph 1022.3mb 57f 53f
6:50 4.5ft 8s 5s 11 13 mph 1021.9mb 57f 53f
5:50 4ft 8s 5s 11 16 mph 1021.2mb 57f 54f
4:50 4.5ft 8s 6s 13 16 mph 1021mb 57f 55f
3:50 4.5ft 8s 6s 11 16 mph 1021.1mb 57f 55f
2:50 3.5ft 8s 5s 11 16 mph 1021mb 57f 56f
1:50 4ft 8s 5s 16 18 mph 1021.1mb 58f 57f
12:50 4ft 8s 5s 13 18 mph 1020.9mb 59f 58f
lun. 08/22 11:50 4ft 7s 5s 13 18 mph 1020.9mb 58f 58f
10:50 4.5ft 8s 5s 16 18 mph 1020.9mb 59f 58f
9:50 4ft 6s 5s 16 18 mph 1021.1mb 59f 58f
8:50 4ft 8s 5s 18 20 mph 1020.5mb 59f 59f
7:50 4ft 8s 5s 18 22 mph 1020.1mb 59f 59f
6:50 3.5ft 7s 5s 16 18 mph 1020.1mb 59f 59f
5:50 4.5ft 6s 6s 13 16 mph 1020.2mb 59f 59f
4:50 4.5ft 8s 6s 13 16 mph 1020.4mb 60f 59f
3:50 4.5ft 7s 6s 9
mph
1020.7mb 59f 60f
2:50 4ft 7s 6s 7 9 mph 1020.9mb 59f 59f
1:50 4.5ft 7s 6s 7
mph
1020.9mb 59f 59f
12:50 4.5ft 7s 6s 9 11 mph 1021.1mb 59f 59f
11:50 4.5ft 8s 6s 7 9 mph 1021.2mb 58f 59f
10:50 4.5ft 8s 6s 9
mph
1021mb 58f 59f
9:50 4.5ft 7s 6s 9 11 mph 1020.6mb 58f 58f
8:50 4.5ft 8s 6s 7 9 mph 1020.3mb 58f 58f
7:50 5ft 8s 6s 7 9 mph 1020mb 58f 58f
6:50 4.5ft 7s 6s 9
mph
1019.5mb 58f 58f
5:50 5ft 7s 6s 9 11 mph 1019.1mb 58f 58f
4:50 4.5ft 7s 6s 9 11 mph 1018.7mb 58f 58f
3:50 4.5ft 15s 6s 9 11 mph 1018.6mb 57f 58f
2:50 4.5ft 7s 6s 7 9 mph 1018.4mb 57f 58f
1:50 4.5ft 8s 6s 9
mph
1018.4mb 58f 58f
12:50 4.5ft 8s 6s 9 11 mph 1018.3mb 57f 58f
dim. 08/21 11:50 4.5ft 7s 6s 9 11 mph 1018.4mb 58f 58f
10:50 4.5ft 8s 6s 9 11 mph 1018.3mb 58f 58f
9:50 5ft 7s 6s 9 11 mph 1018.2mb 58f 58f
7:50 5ft 7s 6s 11 13 mph 1017.2mb 59f 58f
6:50 5ft 8s 6s 11 13 mph 1017.1mb 59f 59f
5:50 5ft 8s 7s 16 18 mph 1016.9mb 59f 60f
4:50 5.5ft 8s 7s 9 11 mph 1016.8mb 60f 60f
3:50 5ft 8s 6s 4 7 mph 1016.8mb 60f 60f
2:50 5.5ft 8s 7s 2 4 mph 1017mb 59f 60f
1:50 6ft 8s 7s 2 4 mph 1017.2mb 58f 60f
12:50 6.5ft 8s 7s 2
mph
1017.3mb 58f 59f
11:50 6.5ft 8s 7s 2
mph
1016.9mb 58f 58f
10:50 7ft 8s 7s 4 7 mph 1016.5mb 58f 58f
9:50 6.5ft 8s 7s 11 13 mph 1015.9mb 58f 57f
8:50 6ft 8s 7s 11 16 mph 1015.3mb 58f 57f
7:50 6.5ft 9s 6s 9 11 mph 1014.9mb 58f 58f
6:50 7ft 8s 7s 13 16 mph 1014.4mb 58f 58f
5:50 6.5ft 8s 6s 11 13 mph 1014mb 58f 58f
4:50 7ft 8s 7s 11 13 mph 1013.6mb 58f 58f
3:50 6.5ft 9s 7s 11 13 mph 1013.6mb 58f 57f
2:50 6.5ft 9s 7s 9 11 mph 1013.4mb 58f 57f
1:50 6.5ft 8s 7s 11 13 mph 1013.3mb 58f 57f
12:50 6ft 8s 7s 13 16 mph 1013.3mb 58f 57f
sam. 08/20 11:50 6ft 8s 7s 11 13 mph 1013.3mb 58f 57f
10:50 6ft 9s 7s 11 13 mph 1013.2mb 57f 57f
9:50 6ft 9s 7s 11 13 mph 1013.2mb 58f 56f